Time;durP1;ratioP1;P1;durP2;ratioP2;P2;SDS_P1;SDS_P2;PMS_P1;PMS_P2;Temp;Humidity;BMP_temperature;BMP_pressure;BME280_temperature;BME280_humidity;BME280_pressure;Samples;Min_cycle;Max_cycle;Signal;HPM_P1;HPM_P2
2023/05/21 00:01:42;;;;;;;15.75;10.68;;;12.60;99.90;;;;;;5013860;28;20176;-74
2023/05/21 00:04:08;;;;;;;13.50;9.57;;;12.60;99.90;;;;;;5015217;28;20269;-74
2023/05/21 00:06:37;;;;;;;14.23;10.35;;;12.60;99.90;;;;;;5010548;28;20218;-74
2023/05/21 00:09:04;;;;;;;12.88;9.85;;;12.70;99.90;;;;;;5015056;28;20176;-74
2023/05/21 00:11:30;;;;;;;15.55;10.55;;;12.70;99.90;;;;;;5015437;28;20251;-74
2023/05/21 00:13:56;;;;;;;12.93;10.10;;;12.60;99.90;;;;;;5015597;28;20211;-74
2023/05/21 00:16:23;;;;;;;14.95;11.27;;;12.60;99.90;;;;;;5013671;28;20710;-74
2023/05/21 00:18:49;;;;;;;15.15;10.43;;;12.60;99.90;;;;;;5015045;28;20640;-74
2023/05/21 00:21:16;;;;;;;14.63;11.35;;;12.60;99.90;;;;;;5015006;28;20180;-75
2023/05/21 00:23:42;;;;;;;14.80;11.43;;;12.50;99.90;;;;;;5013525;28;20333;-74
2023/05/21 00:26:08;;;;;;;14.15;10.35;;;12.50;99.90;;;;;;5014958;28;20199;-74
2023/05/21 00:28:34;;;;;;;15.13;11.38;;;12.50;99.90;;;;;;5013570;28;20180;-74
2023/05/21 00:31:00;;;;;;;14.27;10.48;;;12.50;99.90;;;;;;5014704;28;20199;-74
2023/05/21 00:33:27;;;;;;;13.00;10.88;;;12.40;99.90;;;;;;5014896;28;20210;-74
2023/05/21 00:35:54;;;;;;;13.40;10.05;;;12.20;99.90;;;;;;5014513;28;20671;-74
2023/05/21 00:38:20;;;;;;;15.38;11.23;;;12.10;99.90;;;;;;5013561;28;20180;-74
2023/05/21 00:40:47;;;;;;;14.60;10.27;;;12.10;99.90;;;;;;5013787;28;20186;-75
2023/05/21 00:43:13;;;;;;;14.20;9.43;;;12.10;99.90;;;;;;5015638;28;20199;-75
2023/05/21 00:45:41;;;;;;;15.63;11.15;;;12.00;99.90;;;;;;5013688;28;20196;-74
2023/05/21 00:48:07;;;;;;;13.60;10.20;;;12.10;99.90;;;;;;5015267;28;20203;-75
2023/05/21 00:50:34;;;;;;;13.82;10.45;;;12.10;99.90;;;;;;5015210;28;20621;-75
2023/05/21 00:53:00;;;;;;;14.98;10.35;;;12.00;99.90;;;;;;5013479;28;20190;-75
2023/05/21 00:55:26;;;;;;;13.88;10.75;;;12.10;99.90;;;;;;5014611;28;20255;-75
2023/05/21 00:57:52;;;;;;;15.23;10.60;;;12.00;99.90;;;;;;5014297;28;20673;-74
2023/05/21 01:00:19;;;;;;;14.68;10.50;;;12.00;99.90;;;;;;5012824;28;20190;-74
2023/05/21 01:02:45;;;;;;;13.40;9.98;;;12.10;99.90;;;;;;5014493;28;20183;-74
2023/05/21 01:05:11;;;;;;;16.63;11.15;;;12.10;99.90;;;;;;5012691;28;20210;-74
2023/05/21 01:07:40;;;;;;;13.63;10.27;;;12.00;99.90;;;;;;5014153;28;20241;-74
2023/05/21 01:10:08;;;;;;;18.58;10.15;;;12.00;99.90;;;;;;5014087;28;20171;-74
2023/05/21 01:12:36;;;;;;;14.52;10.68;;;12.00;99.90;;;;;;5014460;28;20171;-74
2023/05/21 01:15:02;;;;;;;15.05;10.95;;;11.90;99.90;;;;;;5013764;28;20183;-74
2023/05/21 01:17:29;;;;;;;13.30;10.68;;;11.90;99.90;;;;;;5013901;28;20294;-74
2023/05/21 01:19:57;;;;;;;14.18;10.63;;;11.90;99.90;;;;;;5013913;28;20186;-74
2023/05/21 01:22:23;;;;;;;15.07;10.98;;;11.90;99.90;;;;;;5013769;28;20180;-74
2023/05/21 01:24:51;;;;;;;13.00;9.95;;;11.80;99.90;;;;;;5012287;28;20571;-74
2023/05/21 01:27:17;;;;;;;15.38;10.98;;;11.70;99.90;;;;;;5013856;28;20190;-74
2023/05/21 01:29:43;;;;;;;14.85;11.07;;;11.60;99.90;;;;;;5013616;28;20247;-74
2023/05/21 01:32:27;;;;;;;13.30;10.25;;;11.60;99.90;;;;;;5013868;28;20742;-74
2023/05/21 01:35:10;;;;;;;15.13;10.18;;;11.50;99.90;;;;;;5013920;28;20201;-74
2023/05/21 01:38:10;;;;;;;15.45;11.60;;;11.40;99.90;;;;;;5013928;28;20203;-74
2023/05/21 01:40:51;;;;;;;15.20;10.80;;;11.40;99.90;;;;;;5013967;28;20239;-74
2023/05/21 01:43:18;;;;;;;16.67;10.77;;;11.40;99.90;;;;;;5013643;28;20251;-74
2023/05/21 01:45:45;;;;;;;13.02;10.05;;;11.30;99.90;;;;;;5012204;28;20200;-74
2023/05/21 01:48:11;;;;;;;14.52;11.10;;;11.30;99.90;;;;;;5012172;28;20187;-74
2023/05/21 01:50:39;;;;;;;15.35;11.18;;;11.30;99.90;;;;;;5013653;28;20178;-74
2023/05/21 01:53:05;;;;;;;15.52;11.95;;;11.30;99.90;;;;;;5014741;28;20180;-74
2023/05/21 01:55:31;;;;;;;14.60;10.52;;;11.20;99.90;;;;;;5017432;28;20242;-74
2023/05/21 01:57:58;;;;;;;16.13;11.18;;;11.30;99.90;;;;;;5017656;28;20176;-74
2023/05/21 02:00:28;;;;;;;13.70;10.35;;;11.30;99.90;;;;;;5016217;28;20660;-74
2023/05/21 02:02:53;;;;;;;14.07;10.93;;;11.20;99.90;;;;;;5016436;28;20556;-74
2023/05/21 02:05:19;;;;;;;12.57;10.25;;;11.30;99.90;;;;;;5015964;28;20203;-74
2023/05/21 02:07:46;;;;;;;14.80;11.02;;;11.20;99.90;;;;;;5017399;28;20590;-74
2023/05/21 02:10:12;;;;;;;14.48;10.80;;;11.30;99.90;;;;;;5017770;28;20668;-74
2023/05/21 02:12:38;;;;;;;12.75;9.95;;;11.30;99.90;;;;;;5016236;28;20190;-74
2023/05/21 02:15:04;;;;;;;14.07;11.02;;;11.20;99.90;;;;;;5017239;28;20180;-74
2023/05/21 02:17:32;;;;;;;13.77;10.85;;;11.10;99.90;;;;;;5016496;28;20203;-74
2023/05/21 02:20:11;;;;;;;12.50;9.68;;;11.20;99.90;;;;;;5019973;28;20180;-74
2023/05/21 02:22:41;;;;;;;14.50;10.35;;;11.20;99.90;;;;;;5020015;28;20168;-74
2023/05/21 02:25:08;;;;;;;12.48;10.00;;;11.10;99.90;;;;;;5018333;28;20282;-76
2023/05/21 02:27:38;;;;;;;16.08;10.93;;;11.10;99.90;;;;;;5019741;28;20203;-74
2023/05/21 02:30:06;;;;;;;13.30;10.60;;;11.10;99.90;;;;;;5019713;28;20259;-74
2023/05/21 02:32:32;;;;;;;14.40;9.77;;;11.10;99.90;;;;;;5021458;28;20249;-74
2023/05/21 02:34:59;;;;;;;13.60;9.93;;;11.10;99.90;;;;;;5021993;28;20560;-74
2023/05/21 02:37:29;;;;;;;14.55;9.82;;;11.10;99.90;;;;;;5021065;28;20195;-74
2023/05/21 02:39:55;;;;;;;14.00;10.68;;;11.10;99.90;;;;;;5019325;28;20187;-74
2023/05/21 02:42:22;;;;;;;12.70;10.93;;;11.20;99.90;;;;;;5016643;28;20183;-74
2023/05/21 02:44:49;;;;;;;16.08;10.40;;;11.10;99.90;;;;;;5016176;28;20200;-74
2023/05/21 02:47:15;;;;;;;12.90;9.82;;;11.10;99.90;;;;;;5016224;28;20214;-74
2023/05/21 02:49:41;;;;;;;13.02;10.15;;;11.20;99.90;;;;;;5017683;28;20172;-74
2023/05/21 02:52:07;;;;;;;15.57;10.40;;;11.10;99.90;;;;;;5016265;28;20183;-74
2023/05/21 02:54:32;;;;;;;13.02;10.27;;;11.10;99.90;;;;;;5016777;28;20180;-74
2023/05/21 02:56:58;;;;;;;14.32;10.82;;;11.00;99.90;;;;;;5017101;28;20200;-74
2023/05/21 02:59:24;;;;;;;14.80;11.32;;;10.90;99.90;;;;;;5017033;28;20632;-74
2023/05/21 03:01:50;;;;;;;14.85;11.13;;;10.80;99.90;;;;;;5016454;28;20207;-74
2023/05/21 03:04:27;;;;;;;15.73;11.43;;;10.70;99.90;;;;;;5015656;28;20196;-74
2023/05/21 03:06:53;;;;;;;15.10;10.93;;;10.70;99.90;;;;;;5015150;28;20218;-74
2023/05/21 03:09:20;;;;;;;14.30;11.05;;;10.70;99.90;;;;;;5017059;28;20509;-74
2023/05/21 03:11:47;;;;;;;14.43;11.40;;;10.60;99.90;;;;;;5015079;28;20180;-74
2023/05/21 03:14:13;;;;;;;15.68;12.13;;;10.60;99.90;;;;;;5016355;28;20663;-74
2023/05/21 03:16:40;;;;;;;14.80;11.05;;;10.60;99.90;;;;;;5016067;28;20239;-74
2023/05/21 03:19:10;;;;;;;15.48;11.65;;;10.60;99.90;;;;;;5015027;28;20184;-74
2023/05/21 03:21:36;;;;;;;18.85;11.50;;;10.70;99.90;;;;;;5016403;28;20176;-74
2023/05/21 03:24:03;;;;;;;16.67;11.65;;;10.60;99.90;;;;;;5015780;28;20206;-74
2023/05/21 03:26:29;;;;;;;16.00;11.90;;;10.60;99.90;;;;;;5015045;28;20200;-74
2023/05/21 03:28:55;;;;;;;16.92;11.85;;;10.50;99.90;;;;;;5014670;28;20324;-74
2023/05/21 03:31:22;;;;;;;14.45;11.98;;;10.60;99.90;;;;;;5016083;28;20230;-72
2023/05/21 03:33:48;;;;;;;16.70;11.63;;;10.60;99.90;;;;;;5014357;28;20203;-72
2023/05/21 03:36:13;;;;;;;14.80;11.40;;;10.50;99.90;;;;;;5015479;28;20208;-72
2023/05/21 03:38:39;;;;;;;16.98;11.93;;;10.60;99.90;;;;;;5015597;28;20237;-72
2023/05/21 03:41:07;;;;;;;15.05;11.32;;;10.60;99.90;;;;;;5014215;28;20234;-72
2023/05/21 03:43:33;;;;;;;13.68;10.48;;;10.70;99.90;;;;;;5015344;28;20262;-72
2023/05/21 03:45:58;;;;;;;16.98;10.57;;;10.80;99.90;;;;;;5015392;28;20212;-72
2023/05/21 03:48:24;;;;;;;13.98;10.95;;;10.80;99.90;;;;;;5015606;28;20172;-72
2023/05/21 03:50:50;;;;;;;14.85;10.73;;;10.80;99.90;;;;;;5015938;28;20172;-72
2023/05/21 03:53:16;;;;;;;15.23;11.48;;;10.80;99.90;;;;;;5015683;28;20277;-72
2023/05/21 03:55:42;;;;;;;12.30;10.27;;;10.80;99.90;;;;;;5014164;28;20672;-72
2023/05/21 03:58:09;;;;;;;15.65;10.80;;;10.80;99.90;;;;;;5015232;28;20301;-72
2023/05/21 04:00:39;;;;;;;12.90;10.48;;;10.90;99.90;;;;;;5014020;28;20632;-72
2023/05/21 04:03:05;;;;;;;14.77;10.23;;;10.80;99.90;;;;;;5015825;28;20168;-72
2023/05/21 04:05:32;;;;;;;13.07;10.68;;;10.80;99.90;;;;;;5013969;28;20187;-72
2023/05/21 04:07:59;;;;;;;12.73;10.10;;;10.80;99.90;;;;;;5015271;28;20172;-72
2023/05/21 04:10:25;;;;;;;14.73;10.93;;;10.80;99.90;;;;;;5013826;28;20285;-72
2023/05/21 04:12:51;;;;;;;12.38;10.30;;;10.80;99.90;;;;;;5015465;28;20152;-72
2023/05/21 04:15:20;;;;;;;15.00;10.43;;;10.90;99.90;;;;;;5014726;28;20299;-72
2023/05/21 04:17:46;;;;;;;18.13;10.70;;;10.90;99.90;;;;;;5015024;28;20263;-72
2023/05/21 04:20:12;;;;;;;12.40;10.02;;;10.90;99.90;;;;;;5013664;28;20258;-72
2023/05/21 04:22:38;;;;;;;14.35;10.90;;;10.80;99.90;;;;;;5013947;28;20646;-72
2023/05/21 04:25:05;;;;;;;14.25;9.98;;;10.80;99.90;;;;;;5014785;28;20195;-72
2023/05/21 04:27:30;;;;;;;13.45;10.25;;;10.90;99.90;;;;;;5016217;28;20204;-72
2023/05/21 04:29:56;;;;;;;12.38;10.10;;;10.90;99.90;;;;;;5019856;28;20164;-72
2023/05/21 04:32:23;;;;;;;15.38;10.73;;;11.00;99.90;;;;;;5016174;28;20249;-72
2023/05/21 04:34:49;;;;;;;12.82;10.80;;;11.10;99.90;;;;;;5013400;28;20191;-72
2023/05/21 04:37:17;;;;;;;13.02;10.07;;;11.10;99.90;;;;;;5014530;28;20199;-72
2023/05/21 04:39:43;;;;;;;12.63;10.13;;;11.00;99.90;;;;;;5013387;28;20226;-72
2023/05/21 04:42:09;;;;;;;13.23;9.90;;;11.00;99.90;;;;;;5014762;28;20164;-72
2023/05/21 04:44:37;;;;;;;14.77;10.05;;;11.00;99.90;;;;;;5014636;28;20534;-72
2023/05/21 04:47:03;;;;;;;14.10;10.50;;;11.00;99.90;;;;;;5013204;28;20196;-72
2023/05/21 04:49:28;;;;;;;16.00;10.00;;;11.00;99.90;;;;;;5012910;28;20180;-72
2023/05/21 04:51:55;;;;;;;11.43;9.57;;;10.90;99.90;;;;;;5014492;28;20233;-72
2023/05/21 04:54:21;;;;;;;13.02;10.05;;;10.90;99.90;;;;;;5014420;28;20701;-72
2023/05/21 04:56:47;;;;;;;12.02;9.88;;;10.80;99.90;;;;;;5014469;28;20299;-72
2023/05/21 04:59:13;;;;;;;14.32;10.57;;;10.80;99.90;;;;;;5015844;28;20195;-72
2023/05/21 05:01:40;;;;;;;14.80;11.07;;;10.80;99.90;;;;;;5014298;28;20176;-72
2023/05/21 05:04:06;;;;;;;13.40;10.27;;;10.80;99.90;;;;;;5014516;28;20191;-72
2023/05/21 05:06:31;;;;;;;13.57;10.98;;;10.80;99.90;;;;;;5014138;28;20206;-72
2023/05/21 05:08:57;;;;;;;13.55;11.05;;;10.90;99.90;;;;;;5014376;28;20168;-72
2023/05/21 05:11:23;;;;;;;13.35;10.98;;;10.90;99.90;;;;;;5012795;28;20186;-72
2023/05/21 05:13:49;;;;;;;17.40;10.80;;;11.00;99.90;;;;;;5012929;28;20187;-72
2023/05/21 05:16:17;;;;;;;13.90;10.85;;;11.10;99.90;;;;;;5013850;28;20203;-72
2023/05/21 05:18:43;;;;;;;15.55;11.07;;;11.10;99.90;;;;;;5012792;28;20179;-72
2023/05/21 05:21:08;;;;;;;16.55;11.48;;;11.20;99.90;;;;;;5012740;28;20190;-72
2023/05/21 05:23:34;;;;;;;18.05;11.77;;;11.20;99.90;;;;;;5012470;28;20210;-72
2023/05/21 05:26:00;;;;;;;14.25;10.90;;;11.30;99.90;;;;;;5012658;28;20579;-72
2023/05/21 05:28:26;;;;;;;15.48;11.98;;;11.40;99.90;;;;;;5013388;28;20719;-72
2023/05/21 05:30:51;;;;;;;17.27;11.85;;;11.40;99.90;;;;;;5014082;28;20179;-72
2023/05/21 05:33:17;;;;;;;15.60;11.50;;;11.60;99.90;;;;;;5013706;28;20183;-72
2023/05/21 05:35:43;;;;;;;15.23;11.82;;;11.70;99.90;;;;;;5013739;28;20227;-72
2023/05/21 05:38:09;;;;;;;17.83;11.82;;;11.80;99.90;;;;;;5012526;28;20183;-72
2023/05/21 05:40:35;;;;;;;15.30;12.18;;;11.90;99.90;;;;;;5014297;28;20178;-72
2023/05/21 05:43:00;;;;;;;16.23;12.20;;;12.00;99.90;;;;;;5014218;28;20179;-72
2023/05/21 05:45:26;;;;;;;16.85;11.77;;;12.10;99.90;;;;;;5013865;28;20188;-72
2023/05/21 05:47:52;;;;;;;16.67;12.30;;;12.30;99.90;;;;;;5012818;28;20183;-72
2023/05/21 05:50:17;;;;;;;15.40;11.85;;;12.40;99.90;;;;;;5013780;28;20200;-72
2023/05/21 05:52:43;;;;;;;17.98;12.25;;;12.50;99.90;;;;;;5013970;28;20727;-72
2023/05/21 05:55:10;;;;;;;15.82;12.35;;;12.60;99.90;;;;;;5012637;28;20714;-72
2023/05/21 05:57:36;;;;;;;15.75;12.10;;;12.60;99.90;;;;;;5014024;28;20215;-72
2023/05/21 06:00:03;;;;;;;12.18;9.90;;;12.70;99.90;;;;;;5014001;28;20579;-72
2023/05/21 06:02:29;;;;;;;14.90;12.20;;;12.80;99.90;;;;;;5013846;28;20180;-72
2023/05/21 06:04:55;;;;;;;14.93;12.18;;;12.90;99.90;;;;;;5013154;28;20287;-72
2023/05/21 06:07:21;;;;;;;14.70;11.27;;;13.00;99.90;;;;;;5012300;28;20740;-72
2023/05/21 06:09:46;;;;;;;18.05;12.27;;;13.00;99.90;;;;;;5013248;28;20180;-72
2023/05/21 06:12:14;;;;;;;14.68;11.30;;;13.10;99.90;;;;;;5014087;28;20211;-72
2023/05/21 06:14:41;;;;;;;17.10;12.35;;;13.20;99.90;;;;;;5013556;28;20168;-72
2023/05/21 06:17:06;;;;;;;13.68;11.02;;;13.30;99.90;;;;;;5013500;28;20223;-72
2023/05/21 06:19:32;;;;;;;15.45;12.57;;;13.30;99.90;;;;;;5012373;28;20207;-72
2023/05/21 06:21:58;;;;;;;16.17;11.85;;;13.30;99.90;;;;;;5012241;28;20645;-72
2023/05/21 06:24:24;;;;;;;16.75;12.77;;;13.40;99.90;;;;;;5013369;28;20219;-72
2023/05/21 06:26:50;;;;;;;16.10;12.00;;;13.50;99.90;;;;;;5013413;28;20254;-72
2023/05/21 06:29:15;;;;;;;17.15;12.90;;;13.50;99.90;;;;;;5013326;28;20176;-72
2023/05/21 06:31:42;;;;;;;14.18;11.70;;;13.60;99.90;;;;;;5013006;28;20176;-72
2023/05/21 06:34:07;;;;;;;14.52;12.20;;;13.60;99.90;;;;;;5012236;28;20184;-72
2023/05/21 06:36:33;;;;;;;14.40;11.80;;;13.70;99.90;;;;;;5013706;28;20261;-72
2023/05/21 06:38:59;;;;;;;14.75;12.30;;;13.70;99.90;;;;;;5013897;28;20223;-72
2023/05/21 06:41:25;;;;;;;15.50;11.48;;;13.70;99.90;;;;;;5016246;28;20180;-72
2023/05/21 06:43:51;;;;;;;14.25;11.82;;;13.80;99.90;;;;;;5016947;28;20741;-72
2023/05/21 06:46:17;;;;;;;15.15;12.85;;;13.90;99.90;;;;;;5016745;28;20279;-72
2023/05/21 06:48:43;;;;;;;14.48;11.68;;;13.90;99.90;;;;;;5016892;28;20257;-72
2023/05/21 06:51:09;;;;;;;16.17;12.35;;;14.00;99.90;;;;;;5016692;28;20176;-70
2023/05/21 06:53:34;;;;;;;16.92;12.85;;;14.00;99.90;;;;;;5017079;28;20171;-71
2023/05/21 06:56:00;;;;;;;14.93;12.60;;;14.00;99.90;;;;;;5015123;28;20218;-71
2023/05/21 06:58:30;;;;;;;15.38;12.38;;;14.10;99.90;;;;;;5017258;28;20171;-71
2023/05/21 07:00:58;;;;;;;15.90;12.73;;;14.10;99.90;;;;;;5017368;28;20156;-70
2023/05/21 07:03:24;;;;;;;17.80;12.93;;;14.20;99.90;;;;;;5016807;28;20183;-73
2023/05/21 07:05:54;;;;;;;18.98;12.88;;;14.20;99.90;;;;;;5016648;28;20594;-72
2023/05/21 07:08:20;;;;;;;14.15;11.80;;;14.30;99.90;;;;;;5018459;28;20216;-72
2023/05/21 07:10:46;;;;;;;16.13;12.77;;;14.30;99.90;;;;;;5016516;28;20153;-73
2023/05/21 07:13:12;;;;;;;15.73;11.57;;;14.30;99.90;;;;;;5017122;28;20217;-73
2023/05/21 07:15:37;;;;;;;20.17;12.82;;;14.40;99.90;;;;;;5015877;28;20316;-73
2023/05/21 07:18:03;;;;;;;14.95;12.43;;;14.50;99.90;;;;;;5016986;28;20207;-73
2023/05/21 07:20:29;;;;;;;14.00;11.85;;;14.50;99.90;;;;;;5015486;28;20274;-73
2023/05/21 07:22:55;;;;;;;16.52;13.02;;;14.50;99.90;;;;;;5015499;28;20184;-74
2023/05/21 07:25:21;;;;;;;14.77;11.40;;;14.50;99.90;;;;;;5015710;28;20194;-73
2023/05/21 07:27:46;;;;;;;21.23;12.93;;;14.50;99.90;;;;;;5017167;28;20532;-74
2023/05/21 07:30:14;;;;;;;20.45;13.68;;;14.60;99.90;;;;;;5016046;28;20160;-73
2023/05/21 07:32:39;;;;;;;17.00;13.45;;;14.70;99.90;;;;;;5015563;28;20242;-73
2023/05/21 07:35:05;;;;;;;15.55;12.35;;;14.70;99.90;;;;;;5015742;28;20192;-73
2023/05/21 07:37:32;;;;;;;13.48;11.60;;;14.70;99.90;;;;;;5016884;28;20636;-71
2023/05/21 07:39:58;;;;;;;15.75;12.55;;;14.80;99.90;;;;;;5015319;28;20180;-71
2023/05/21 07:42:27;;;;;;;16.95;12.32;;;14.90;99.90;;;;;;5014438;28;20187;-71
2023/05/21 07:44:52;;;;;;;17.08;13.00;;;15.00;99.90;;;;;;5015811;28;20200;-71
2023/05/21 07:47:18;;;;;;;15.52;12.50;;;15.00;99.90;;;;;;5014626;28;20214;-71
2023/05/21 07:49:44;;;;;;;15.25;12.52;;;15.00;99.90;;;;;;5015746;28;20254;-71
2023/05/21 07:52:10;;;;;;;16.77;12.10;;;15.10;99.90;;;;;;5015936;28;20172;-71
2023/05/21 07:54:36;;;;;;;15.70;12.40;;;15.30;99.90;;;;;;5014312;28;20541;-71
2023/05/21 07:57:02;;;;;;;17.27;13.35;;;15.40;99.90;;;;;;5015829;28;20199;-71
2023/05/21 07:59:28;;;;;;;15.73;12.27;;;15.40;99.90;;;;;;5015959;28;20161;-73
2023/05/21 08:01:54;;;;;;;17.38;12.88;;;15.40;99.90;;;;;;5015474;28;20555;-73
2023/05/21 08:04:20;;;;;;;15.95;12.25;;;15.40;99.90;;;;;;5014244;28;20195;-73
2023/05/21 08:06:47;;;;;;;15.65;12.93;;;15.50;99.90;;;;;;5014036;28;20206;-73
2023/05/21 08:09:13;;;;;;;15.15;12.68;;;15.60;99.90;;;;;;5015506;28;20164;-73
2023/05/21 08:11:39;;;;;;;18.27;12.65;;;15.70;99.90;;;;;;5015499;28;20175;-73
2023/05/21 08:14:05;;;;;;;16.67;12.32;;;15.80;99.90;;;;;;5015246;28;20255;-73
2023/05/21 08:16:31;;;;;;;16.13;12.43;;;16.00;99.90;;;;;;5013770;28;20199;-73
2023/05/21 08:18:56;;;;;;;17.35;13.27;;;16.00;99.90;;;;;;5016267;28;20632;-73
2023/05/21 08:21:22;;;;;;;17.25;13.40;;;16.10;99.90;;;;;;5016296;28;20160;-73
2023/05/21 08:23:50;;;;;;;21.35;14.52;;;16.30;99.90;;;;;;5015757;28;20203;-73
2023/05/21 08:26:16;;;;;;;17.02;13.73;;;16.50;99.90;;;;;;5017180;28;20278;-72
2023/05/21 08:28:42;;;;;;;18.00;13.95;;;16.70;99.90;;;;;;5016062;28;20263;-72
2023/05/21 08:31:08;;;;;;;16.92;13.07;;;16.80;99.90;;;;;;5015339;28;20240;-72
2023/05/21 08:33:37;;;;;;;16.77;12.65;;;16.90;99.90;;;;;;5015156;28;20191;-71
2023/05/21 08:36:04;;;;;;;15.93;13.45;;;17.30;99.90;;;;;;5014609;28;20215;-71
2023/05/21 08:38:30;;;;;;;17.33;13.32;;;17.60;99.90;;;;;;5016701;28;20186;-73
2023/05/21 08:40:57;;;;;;;16.00;12.77;;;17.70;99.90;;;;;;5013551;28;20168;-73
2023/05/21 08:43:27;;;;;;;14.63;12.95;;;17.90;99.90;;;;;;5015085;28;20211;-73
2023/05/21 08:45:54;;;;;;;17.92;12.77;;;18.30;99.90;;;;;;5014606;28;20199;-73
2023/05/21 08:48:22;;;;;;;17.83;13.23;;;18.50;99.90;;;;;;5013278;28;20174;-73
2023/05/21 08:50:50;;;;;;;15.05;12.40;;;18.50;99.90;;;;;;5013142;28;20171;-73
2023/05/21 08:53:16;;;;;;;14.80;12.38;;;18.50;99.90;;;;;;5015044;28;20152;-73
2023/05/21 08:55:43;;;;;;;17.17;13.25;;;18.50;99.90;;;;;;5014512;28;20207;-73
2023/05/21 08:58:09;;;;;;;17.83;13.10;;;18.80;99.90;;;;;;5014743;28;20544;-73
2023/05/21 09:00:36;;;;;;;20.38;14.57;;;18.90;99.90;;;;;;5013975;28;20235;-73
2023/05/21 09:03:06;;;;;;;16.75;13.18;;;19.10;99.90;;;;;;5013696;28;20175;-74
2023/05/21 09:05:34;;;;;;;20.40;14.27;;;19.10;99.90;;;;;;5013520;28;20199;-73
2023/05/21 09:08:08;;;;;;;17.77;13.77;;;18.90;99.90;;;;;;5014526;28;20174;-72
2023/05/21 09:10:37;;;;;;;17.98;13.00;;;18.90;99.90;;;;;;5014796;28;20179;-72
2023/05/21 09:13:03;;;;;;;16.10;12.85;;;19.00;99.90;;;;;;5014557;28;20175;-73
2023/05/21 09:15:29;;;;;;;18.35;14.75;;;19.30;99.90;;;;;;5014231;28;20202;-73
2023/05/21 09:17:56;;;;;;;19.35;14.45;;;19.20;99.90;;;;;;5014244;28;20163;-73
2023/05/21 09:20:26;;;;;;;16.52;13.18;;;19.30;99.90;;;;;;5014175;28;20172;-73
2023/05/21 09:22:53;;;;;;;17.00;12.77;;;19.40;99.90;;;;;;5014280;28;20662;-73
2023/05/21 09:25:28;;;;;;;15.73;12.90;;;19.50;99.90;;;;;;5014081;28;20256;-74
2023/05/21 09:27:55;;;;;;;18.45;13.98;;;19.80;99.90;;;;;;5012507;28;20205;-74
2023/05/21 09:30:21;;;;;;;19.10;14.98;;;19.50;99.90;;;;;;5014390;28;20180;-73
2023/05/21 09:32:53;;;;;;;17.60;14.75;;;19.20;99.90;;;;;;5014205;28;20702;-73
2023/05/21 09:35:19;;;;;;;16.83;13.95;;;19.10;99.90;;;;;;5014322;28;20579;-72
2023/05/21 09:37:51;;;;;;;16.20;12.65;;;19.10;99.90;;;;;;5012454;28;20231;-72
2023/05/21 09:40:21;;;;;;;20.58;15.80;;;19.10;99.90;;;;;;5013684;28;20171;-72
2023/05/21 09:42:49;;;;;;;17.85;14.38;;;19.10;99.90;;;;;;5012444;28;20651;-72
2023/05/21 09:45:19;;;;;;;22.23;15.93;;;19.00;99.90;;;;;;5013665;28;20207;-72
2023/05/21 09:47:46;;;;;;;19.67;14.98;;;19.00;99.90;;;;;;5012753;28;20199;-74
2023/05/21 09:50:16;;;;;;;18.27;15.07;;;19.10;99.90;;;;;;5012311;28;20184;-70
2023/05/21 09:52:42;;;;;;;18.88;13.88;;;19.10;99.90;;;;;;5014053;28;20164;-71
2023/05/21 09:55:11;;;;;;;20.20;14.85;;;19.20;99.90;;;;;;5012330;28;20705;-71
2023/05/21 09:57:41;;;;;;;21.27;16.58;;;19.20;99.90;;;;;;5013450;28;20188;-71
2023/05/21 10:00:09;;;;;;;18.65;15.60;;;19.20;99.90;;;;;;5013677;28;20191;-71
2023/05/21 10:02:40;;;;;;;20.90;16.08;;;19.20;99.90;;;;;;5013736;28;20172;-72
2023/05/21 10:05:09;;;;;;;20.80;14.90;;;19.30;99.90;;;;;;5012174;28;20290;-72
2023/05/21 10:07:35;;;;;;;20.38;15.55;;;19.40;99.90;;;;;;5012200;28;20206;-72
2023/05/21 10:10:03;;;;;;;21.67;16.35;;;19.40;99.90;;;;;;5012337;28;20286;-72
2023/05/21 10:12:31;;;;;;;19.45;15.13;;;19.20;99.90;;;;;;5012261;28;20183;-72
2023/05/21 10:15:02;;;;;;;20.50;16.25;;;19.30;99.90;;;;;;5017650;28;20221;-72
2023/05/21 10:17:29;;;;;;;18.63;15.70;;;19.30;99.90;;;;;;5016992;28;20286;-72
2023/05/21 10:19:56;;;;;;;23.65;16.52;;;19.40;99.90;;;;;;5015963;28;20176;-72
2023/05/21 10:22:24;;;;;;;21.70;15.90;;;19.30;99.90;;;;;;5017206;28;20203;-72
2023/05/21 10:24:51;;;;;;;21.13;16.42;;;19.30;99.90;;;;;;5015724;28;20261;-72
2023/05/21 10:27:18;;;;;;;20.10;14.93;;;19.40;99.90;;;;;;5017936;28;20682;-72
2023/05/21 10:29:45;;;;;;;19.48;16.40;;;19.50;99.90;;;;;;5017569;28;20163;-72
2023/05/21 10:32:18;;;;;;;19.45;15.60;;;19.60;99.90;;;;;;5016955;28;20726;-72
2023/05/21 10:34:44;;;;;;;20.00;16.13;;;19.80;99.90;;;;;;5015530;28;20199;-72
2023/05/21 10:37:12;;;;;;;19.92;16.10;;;19.90;99.90;;;;;;5015539;28;20210;-72
2023/05/21 10:39:38;;;;;;;20.52;16.02;;;19.80;99.90;;;;;;5015508;28;20188;-72
2023/05/21 10:42:11;;;;;;;22.08;14.80;;;19.80;99.90;;;;;;5016537;28;20175;-72
2023/05/21 10:44:51;;;;;;;19.42;15.50;;;19.80;99.90;;;;;;5015159;28;20188;-72
2023/05/21 10:47:35;;;;;;;21.50;15.80;;;19.80;99.90;;;;;;5016205;28;20274;-72
2023/05/21 10:50:21;;;;;;;20.15;15.73;;;19.80;99.90;;;;;;5016706;28;20621;-72
2023/05/21 10:53:08;;;;;;;20.85;16.55;;;19.90;99.90;;;;;;4976438;28;20668;-72
2023/05/21 10:55:36;;;;;;;20.63;16.05;;;19.90;99.90;;;;;;5016699;28;20211;-72
2023/05/21 10:58:11;;;;;;;20.85;16.92;;;19.90;99.90;;;;;;5016318;28;20242;-72
2023/05/21 11:00:38;;;;;;;20.10;15.50;;;19.90;99.90;;;;;;5016395;28;20178;-72
2023/05/21 11:03:05;;;;;;;19.70;15.73;;;20.00;99.90;;;;;;5016208;28;20176;-72
2023/05/21 11:05:52;;;;;;;23.15;15.98;;;20.30;99.90;;;;;;5016245;28;20261;-72
2023/05/21 11:08:21;;;;;;;22.65;15.55;;;20.50;99.90;;;;;;5016184;28;20172;-73
2023/05/21 11:10:52;;;;;;;22.33;15.68;;;20.50;99.90;;;;;;5016368;28;20168;-72
2023/05/21 11:13:20;;;;;;;21.08;15.95;;;20.70;99.90;;;;;;5015088;28;20176;-72
2023/05/21 11:15:58;;;;;;;19.50;15.50;;;20.80;99.90;;;;;;5016355;28;20660;-72
2023/05/21 11:18:33;;;;;;;20.58;15.35;;;20.90;83.70;;;;;;5014804;28;20191;-72
2023/05/21 11:21:27;;;;;;;18.92;14.77;;;21.10;99.90;;;;;;5016438;28;20171;-72
2023/05/21 11:23:54;;;;;;;20.95;16.33;;;21.10;99.90;;;;;;5016569;28;20210;-72
2023/05/21 11:26:25;;;;;;;18.13;14.73;;;21.10;14.70;;;;;;5014111;28;20227;-72
2023/05/21 11:29:07;;;;;;;21.10;16.17;;;21.00;78.50;;;;;;5016374;28;20210;-72
2023/05/21 11:31:37;;;;;;;18.95;15.93;;;21.10;1.00;;;;;;5015834;28;20254;-76
2023/05/21 11:34:20;;;;;;;23.23;15.68;;;21.00;51.20;;;;;;5016051;28;20171;-74
2023/05/21 11:36:48;;;;;;;18.30;15.80;;;21.20;99.90;;;;;;5014551;28;20212;-73
2023/05/21 11:39:20;;;;;;;21.00;16.33;;;21.20;30.20;;;;;;5015816;28;20186;-73
2023/05/21 11:41:55;;;;;;;20.77;15.40;;;21.20;18.30;;;;;;5016373;28;20528;-73
2023/05/21 11:44:40;;;;;;;22.80;17.10;;;21.20;62.00;;;;;;5014387;28;20637;-73
2023/05/21 11:47:11;;;;;;;22.08;16.02;;;21.30;15.70;;;;;;5016821;28;20237;-73
2023/05/21 11:49:37;;;;;;;19.88;15.32;;;21.30;25.90;;;;;;5017373;28;20167;-73
2023/05/21 11:52:05;;;;;;;23.42;16.23;;;21.40;22.00;;;;;;5016412;28;20230;-73
2023/05/21 11:54:36;;;;;;;19.98;15.23;;;21.60;1.00;;;;;;5014336;28;20235;-73
2023/05/21 11:57:08;;;;;;;19.67;15.38;;;21.70;1.00;;;;;;5016250;28;20527;-73
2023/05/21 11:59:35;;;;;;;21.65;16.33;;;21.80;5.60;;;;;;5014249;28;20180;-73
2023/05/21 12:02:02;;;;;;;19.05;14.55;;;21.90;3.20;;;;;;5013936;28;20648;-73
2023/05/21 12:04:35;;;;;;;20.50;15.93;;;22.10;1.00;;;;;;5013916;28;20218;-73
2023/05/21 12:07:04;;;;;;;19.58;15.65;;;22.60;1.00;;;;;;5015087;28;20199;-73
2023/05/21 12:09:30;;;;;;;18.05;15.10;;;23.00;1.00;;;;;;5014913;28;20197;-73
2023/05/21 12:11:55;;;;;;;20.63;15.63;;;23.10;1.00;;;;;;5014945;28;20692;-73
2023/05/21 12:14:22;;;;;;;20.83;16.58;;;23.00;1.00;;;;;;5015235;28;20259;-73
2023/05/21 12:16:47;;;;;;;19.27;15.85;;;22.60;1.00;;;;;;5014658;28;20219;-73
2023/05/21 12:19:16;;;;;;;18.83;15.55;;;22.20;1.00;;;;;;5013579;28;20266;-73
2023/05/21 12:21:42;;;;;;;21.48;15.88;;;22.20;1.00;;;;;;5015090;28;20258;-73
2023/05/21 12:24:08;;;;;;;21.55;16.48;;;22.10;1.00;;;;;;5015501;28;20254;-73
2023/05/21 12:26:34;;;;;;;19.75;16.00;;;22.10;1.00;;;;;;5015378;28;20250;-73
2023/05/21 12:29:00;;;;;;;18.73;15.45;;;22.10;1.00;;;;;;5014955;28;20585;-74
2023/05/21 12:31:31;;;;;;;21.80;15.32;;;22.40;1.00;;;;;;5014941;28;20168;-73